Date,TemperatureHighF,TemperatureAvgF,TemperatureLowF,DewpointHighF,DewpointAvgF,DewpointLowF,HumidityHigh,HumidityAvg,HumidityLow,PressureMaxIn,PressureMinIn,WindSpeedMaxMPH,WindSpeedAvgMPH,GustSpeedMaxMPH,PrecipitationSumIn
2013-3-1,61.2,52.5,48.0,53.6,49.8,47.5,98,91,75,30.44,30.25,6,1,0,0.00
2013-3-2,54.9,50.5,46.0,50.7,48.2,43.8,98,92,78,30.26,30.13,7,1,0,0.01
2013-3-3,58.1,45.2,32.7,43.7,37.5,30.3,98,77,36,30.22,30.07,9,2,0,0.00
2013-3-4,59.0,41.3,28.2,46.4,35.9,27.2,97,83,56,30.08,29.81,7,2,0,0.00
2013-3-5,44.6,42.6,38.3,43.1,41.4,37.0,98,96,91,29.81,29.52,11,1,0,1.64
2013-3-6,49.6,43.2,39.2,46.2,41.8,38.7,98,95,84,29.91,29.48,9,1,0,0.67
2013-3-7,56.5,41.9,32.0,45.1,37.5,31.0,98,86,56,29.98,29.89,7,1,0,0.01
2013-3-8,55.9,42.6,32.4,45.9,38.7,31.4,98,87,63,30.15,29.94,9,2,0,0.00
2013-3-9,65.1,47.3,36.5,47.0,41.4,35.5,98,82,48,30.44,30.16,10,2,0,0.00
2013-3-10,63.9,45.8,32.9,47.0,39.4,31.9,98,82,38,30.44,30.33,6,1,0,0.00
2013-3-11,65.7,51.5,45.0,53.8,47.7,44.5,98,88,62,30.37,30.17,8,2,0,0.00
2013-3-12,61.2,51.3,46.0,52.8,48.4,44.9,98,90,72,30.20,30.13,6,1,0,0.00
2013-3-13,64.2,50.5,43.2,54.1,46.9,42.7,98,88,63,30.18,30.07,7,2,0,0.00
2013-3-14,63.9,51.8,44.8,49.7,46.6,44.3,98,84,54,30.17,30.02,9,2,0,0.00
2013-3-15,64.2,54.1,48.4,54.3,49.9,47.3,98,86,69,30.19,30.13,10,2,0,0.00
2013-3-16,51.8,48.6,43.9,48.8,46.7,42.0,98,93,83,30.19,30.08,10,3,0,0.27
2013-3-17,54.5,44.9,37.4,42.4,39.1,35.2,98,82,54,30.29,30.18,8,2,0,0.01
2013-3-18,62.6,44.4,30.2,44.3,37.7,28.7,98,80,42,30.23,29.99,7,1,0,0.00
2013-3-19,59.9,49.9,43.2,50.9,46.3,41.9,98,88,58,30.00,29.63,14,2,0,0.53
2013-3-20,54.0,48.5,40.1,51.1,45.2,38.7,98,88,67,30.19,29.60,15,5,0,0.44
2013-3-21,49.5,41.8,34.9,43.3,38.4,34.4,98,89,64,30.35,30.20,9,2,0,0.16
2013-3-22,51.6,41.2,32.4,41.3,36.0,30.6,98,83,53,30.36,30.30,9,2,0,0.14
2013-3-23,55.4,40.6,29.5,40.2,34.3,28.0,98,80,46,30.33,30.14,6,2,0,0.00
2013-3-24,57.9,43.4,32.5,41.4,36.8,31.2,98,79,53,30.18,29.98,10,2,0,0.00
2013-3-25,54.0,44.2,34.0,45.5,40.6,32.7,98,88,71,29.99,29.88,7,1,0,0.00
2013-3-26,63.9,50.7,43.5,48.3,44.3,42.4,98,81,50,29.95,29.85,8,2,0,0.00
2013-3-27,64.4,51.7,44.1,54.1,47.5,42.5,98,86,59,29.92,29.80,9,2,0,0.00
2013-3-28,59.7,51.8,45.9,53.4,48.4,45.4,98,89,66,30.05,29.90,8,1,0,0.00
2013-3-29,74.1,58.3,48.7,56.9,51.6,47.1,98,81,50,30.10,29.99,9,2,0,0.02
2013-3-30,79.3,65.0,53.2,59.0,53.2,50.2,92,68,44,29.97,29.86,12,3,0,0.00
2013-3-31,61.2,54.8,50.7,54.7,52.1,50.0,98,91,77,29.99,29.91,4,1,0,0.00